createdAt,value
2018-07-21T00:00:50.925Z,12.50
2018-07-21T00:02:11.427Z,13.30
2018-07-21T00:03:12.531Z,10.20
2018-07-21T00:04:12.483Z,12.60
2018-07-21T00:05:12.710Z,9.20
2018-07-21T00:06:12.948Z,13.80
2018-07-21T00:07:12.086Z,12.10
2018-07-21T00:08:11.878Z,11.70
2018-07-21T00:10:13.720Z,9.20
2018-07-21T00:11:35.219Z,13.00
2018-07-21T00:12:35.300Z,16.50
2018-07-21T00:13:35.092Z,10.40
2018-07-21T00:14:38.697Z,16.40
2018-07-21T00:15:35.699Z,13.20
2018-07-21T00:17:06.483Z,9.10
2018-07-21T00:18:05.245Z,16.20
2018-07-21T00:19:05.104Z,12.80
2018-07-21T00:20:05.752Z,13.50
2018-07-21T00:21:05.464Z,15.60
2018-07-21T00:22:05.258Z,12.10
2018-07-21T00:23:04.986Z,12.30
2018-07-21T00:24:26.097Z,11.30
2018-07-21T00:25:26.877Z,15.70
2018-07-21T00:26:26.793Z,12.70
2018-07-21T00:27:26.530Z,16.10
2018-07-21T00:28:26.174Z,12.60
2018-07-21T00:29:26.812Z,10.90
2018-07-21T00:30:26.638Z,12.10
2018-07-21T00:31:26.306Z,13.20
2018-07-21T00:32:27.005Z,15.30
2018-07-21T00:33:27.010Z,13.90
2018-07-21T00:34:27.889Z,10.90
2018-07-21T00:35:27.059Z,11.20
2018-07-21T00:36:26.822Z,11.80
2018-07-21T00:37:47.454Z,11.30
2018-07-21T00:38:48.271Z,13.10
2018-07-21T00:39:48.014Z,11.80
2018-07-21T00:40:47.620Z,13.20
2018-07-21T00:41:48.680Z,11.00
2018-07-21T00:42:47.815Z,9.40
2018-07-21T00:43:48.401Z,12.40
2018-07-21T00:44:48.565Z,15.20
2018-07-21T00:45:48.533Z,16.30
2018-07-21T00:46:48.601Z,14.00
2018-07-21T00:47:48.799Z,13.20
2018-07-21T00:48:47.879Z,13.10
2018-07-21T00:49:48.012Z,13.20
2018-07-21T00:50:48.255Z,12.80
2018-07-21T00:51:47.781Z,12.60
2018-07-21T00:52:48.756Z,17.80
2018-07-21T00:53:47.416Z,16.60
2018-07-21T00:54:48.217Z,12.40
2018-07-21T00:56:29.800Z,9.60
2018-07-21T00:58:13.112Z,11.70
2018-07-21T00:59:55.582Z,10.10
2018-07-21T01:00:54.789Z,13.50
2018-07-21T01:01:55.207Z,15.40
2018-07-21T01:02:54.904Z,13.60
2018-07-21T01:04:15.262Z,10.70
2018-07-21T01:05:16.148Z,10.80
2018-07-21T01:06:16.041Z,15.40
2018-07-21T01:07:15.962Z,12.50
2018-07-21T01:08:15.637Z,11.20
2018-07-21T01:09:15.475Z,12.60
2018-07-21T01:10:36.308Z,13.00
2018-07-21T01:11:37.725Z,13.80
2018-07-21T01:12:37.192Z,10.20
2018-07-21T01:13:37.459Z,13.70
2018-07-21T01:14:37.592Z,12.60
2018-07-21T01:15:37.228Z,11.40
2018-07-21T01:16:37.309Z,15.90
2018-07-21T01:17:37.350Z,14.20
2018-07-21T01:18:37.469Z,8.50
2018-07-21T01:19:37.146Z,12.70
2018-07-21T01:20:37.152Z,11.50
2018-07-21T01:21:57.880Z,10.70
2018-07-21T01:22:57.885Z,11.40
2018-07-21T01:23:57.568Z,12.90
2018-07-21T01:24:58.584Z,13.30
2018-07-21T01:25:58.365Z,9.00
2018-07-21T01:26:58.368Z,11.10
2018-07-21T01:28:18.716Z,10.10
2018-07-21T01:29:19.771Z,9.00
2018-07-21T01:30:19.847Z,11.10
2018-07-21T01:31:19.047Z,7.20
2018-07-21T01:32:40.024Z,11.50
2018-07-21T01:33:39.559Z,9.40
2018-07-21T01:34:40.643Z,13.90
2018-07-21T01:35:40.294Z,11.80
2018-07-21T01:36:40.094Z,13.20
2018-07-21T01:37:39.886Z,9.60
2018-07-21T01:38:40.781Z,11.00
2018-07-21T01:39:40.904Z,12.10
2018-07-21T01:40:40.823Z,13.20
2018-07-21T01:42:01.022Z,12.20
2018-07-21T01:43:02.064Z,10.80
2018-07-21T01:44:01.009Z,9.90
2018-07-21T01:45:01.628Z,12.70
2018-07-21T01:46:01.791Z,12.00
2018-07-21T01:47:01.489Z,11.60
2018-07-21T01:48:01.676Z,12.40
2018-07-21T01:49:01.726Z,15.90
2018-07-21T01:50:01.457Z,11.90
2018-07-21T01:51:01.734Z,14.00
2018-07-21T01:52:01.717Z,11.80
2018-07-21T01:53:01.933Z,9.60
2018-07-21T01:54:22.883Z,10.60
2018-07-21T01:55:22.745Z,11.80
2018-07-21T01:56:23.277Z,12.90
2018-07-21T01:57:23.366Z,10.50
2018-07-21T01:58:23.394Z,11.20
2018-07-21T01:59:23.331Z,12.30
2018-07-21T02:00:23.316Z,9.00
2018-07-21T02:01:22.955Z,11.30
2018-07-21T02:02:22.986Z,11.20
2018-07-21T02:03:23.232Z,9.10
2018-07-21T02:04:28.029Z,15.90
2018-07-21T02:05:23.185Z,12.10
2018-07-21T02:06:44.229Z,9.30
2018-07-21T02:07:44.052Z,11.00
2018-07-21T02:08:44.719Z,8.30
2018-07-21T02:09:44.787Z,10.50
2018-07-21T02:11:05.092Z,10.70
2018-07-21T02:12:06.049Z,10.60
2018-07-21T02:13:05.902Z,10.50
2018-07-21T02:14:26.758Z,14.80
2018-07-21T02:15:47.932Z,12.10
2018-07-21T02:16:48.135Z,13.30
2018-07-21T02:17:47.817Z,13.30
2018-07-21T02:18:47.557Z,16.90
2018-07-21T02:19:48.685Z,19.80
2018-07-21T02:20:52.016Z,14.30
2018-07-21T02:21:48.093Z,37.20
2018-07-21T02:22:48.230Z,31.10
2018-07-21T02:23:48.162Z,42.30
2018-07-21T02:24:48.151Z,30.20
2018-07-21T02:25:48.241Z,17.60
2018-07-21T02:26:47.915Z,16.60
2018-07-21T02:27:48.007Z,24.90
2018-07-21T02:28:47.860Z,19.40
2018-07-21T02:29:47.600Z,20.20
2018-07-21T02:30:48.741Z,17.80
2018-07-21T02:31:48.719Z,22.50
2018-07-21T02:32:47.677Z,24.50
2018-07-21T02:33:48.897Z,19.50
2018-07-21T02:34:47.740Z,25.70
2018-07-21T02:35:48.835Z,20.50
2018-07-21T02:36:47.760Z,23.20
2018-07-21T02:37:47.951Z,24.40
2018-07-21T02:38:48.208Z,25.30
2018-07-21T02:39:48.261Z,24.50
2018-07-21T02:40:48.520Z,27.10
2018-07-21T02:41:48.658Z,32.00
2018-07-21T02:42:48.363Z,29.90
2018-07-21T02:43:48.059Z,25.90
2018-07-21T02:45:29.261Z,28.90
2018-07-21T02:46:30.435Z,26.00
2018-07-21T02:47:30.305Z,22.90
2018-07-21T02:48:30.130Z,26.30
2018-07-21T02:49:30.369Z,26.30
2018-07-21T02:50:29.652Z,28.30
2018-07-21T02:51:29.841Z,23.60
2018-07-21T02:52:30.000Z,25.10
2018-07-21T02:53:30.288Z,32.90
2018-07-21T02:54:30.387Z,26.00
2018-07-21T02:55:30.298Z,26.20
2018-07-21T02:56:30.415Z,32.90
2018-07-21T02:57:30.524Z,31.40
2018-07-21T02:58:29.405Z,38.30
2018-07-21T02:59:30.444Z,33.70
2018-07-21T03:00:29.383Z,32.10
2018-07-21T03:01:30.242Z,29.30
2018-07-21T03:02:29.928Z,36.50
2018-07-21T03:03:29.813Z,39.70
2018-07-21T03:08:39.309Z,39.90
2018-07-21T03:09:38.860Z,39.80
2018-07-21T03:10:39.559Z,35.60
2018-07-21T03:11:39.373Z,38.30
2018-07-21T03:12:39.305Z,33.30
2018-07-21T03:13:39.425Z,34.70
2018-07-21T03:14:39.221Z,31.40
2018-07-21T03:15:38.961Z,32.40
2018-07-21T03:16:39.839Z,34.00
2018-07-21T03:17:39.916Z,29.90
2018-07-21T03:18:40.864Z,30.30
2018-07-21T03:19:39.972Z,30.10
2018-07-21T03:20:43.559Z,31.00
2018-07-21T03:21:59.792Z,27.50
2018-07-21T03:23:00.787Z,27.50
2018-07-21T03:24:00.939Z,30.30
2018-07-21T03:25:03.617Z,27.00
2018-07-21T03:26:00.394Z,26.40
2018-07-21T03:27:00.076Z,26.00
2018-07-21T03:28:00.579Z,24.80
2018-07-21T03:29:00.532Z,27.70
2018-07-21T03:30:00.505Z,24.60
2018-07-21T03:31:00.584Z,28.50
2018-07-21T03:32:00.945Z,30.00
2018-07-21T03:33:23.933Z,34.80
2018-07-21T03:34:22.111Z,32.60
2018-07-21T03:35:22.025Z,32.20
2018-07-21T03:36:21.888Z,30.30
2018-07-21T03:37:22.003Z,27.10
2018-07-21T03:38:21.640Z,37.60
2018-07-21T03:39:22.299Z,27.20
2018-07-21T03:40:22.390Z,27.20
2018-07-21T03:41:22.011Z,30.70
2018-07-21T03:42:23.780Z,30.10
2018-07-21T03:43:21.931Z,29.10
2018-07-21T03:44:22.238Z,28.50
2018-07-21T03:45:22.869Z,37.80
2018-07-21T03:46:22.617Z,32.20
2018-07-21T03:47:21.967Z,30.00
2018-07-21T03:48:21.799Z,30.20
2018-07-21T03:49:22.441Z,28.80
2018-07-21T03:50:21.457Z,20.60
2018-07-21T03:51:21.693Z,25.10
2018-07-21T03:52:22.530Z,29.60
2018-07-21T03:53:42.349Z,24.10
2018-07-21T03:54:43.802Z,20.60
2018-07-21T03:55:43.779Z,20.40
2018-07-21T03:56:43.042Z,21.40
2018-07-21T03:57:42.784Z,23.60
2018-07-21T03:58:42.396Z,21.70
2018-07-21T03:59:42.512Z,25.30
2018-07-21T04:00:44.297Z,24.10
2018-07-21T04:01:43.139Z,25.00
2018-07-21T04:02:42.958Z,24.30
2018-07-21T04:04:05.106Z,21.60
2018-07-21T04:05:06.196Z,20.50
2018-07-21T04:06:06.071Z,20.90
2018-07-21T04:07:03.624Z,21.40
2018-07-21T04:08:04.386Z,22.00
2018-07-21T04:09:04.151Z,22.20
2018-07-21T04:10:04.436Z,24.90
2018-07-21T04:11:04.189Z,26.00
2018-07-21T04:12:24.725Z,27.70
2018-07-21T04:13:24.783Z,21.40
2018-07-21T04:14:24.579Z,24.30
2018-07-21T04:15:24.779Z,25.60
2018-07-21T04:16:24.727Z,24.80
2018-07-21T04:17:45.720Z,21.50
2018-07-21T04:18:45.608Z,41.00
2018-07-21T04:19:46.150Z,24.10
2018-07-21T04:20:45.947Z,26.20
2018-07-21T04:21:45.882Z,27.80
2018-07-21T04:22:45.618Z,31.00
2018-07-21T04:23:46.264Z,23.50
2018-07-21T04:25:27.327Z,23.40
2018-07-21T04:26:27.039Z,25.00
2018-07-21T04:27:28.929Z,24.40
2018-07-21T04:28:27.958Z,24.00
2018-07-21T04:29:27.449Z,23.30
2018-07-21T04:30:27.046Z,24.20
2018-07-21T04:31:28.049Z,22.10
2018-07-21T04:32:27.831Z,19.30
2018-07-21T04:33:48.227Z,17.60
2018-07-21T04:34:48.826Z,25.00
2018-07-21T04:35:49.039Z,18.20
2018-07-21T04:36:48.789Z,20.50
2018-07-21T04:38:09.754Z,18.40
2018-07-21T04:39:09.814Z,17.60
2018-07-21T04:40:10.052Z,20.10
2018-07-21T04:41:30.528Z,22.00
2018-07-21T04:42:30.361Z,16.70
2018-07-21T04:43:31.376Z,19.60
2018-07-21T04:44:51.347Z,18.10
2018-07-21T04:45:52.065Z,26.70
2018-07-21T04:46:51.980Z,23.00
2018-07-21T04:47:52.245Z,20.30
2018-07-21T04:48:51.858Z,16.80
2018-07-21T04:50:12.578Z,17.10
2018-07-21T04:51:33.264Z,15.80
2018-07-21T04:52:34.276Z,22.30
2018-07-21T04:53:33.918Z,15.00
2018-07-21T04:54:33.489Z,18.60
2018-07-21T04:55:33.468Z,19.70
2018-07-21T04:56:54.936Z,16.70
2018-07-21T04:57:55.005Z,14.20
2018-07-21T04:58:55.104Z,12.70
2018-07-21T04:59:54.980Z,14.50
2018-07-21T05:00:54.737Z,16.20
2018-07-21T05:01:55.600Z,18.30
2018-07-21T05:02:55.704Z,13.80
2018-07-21T05:03:54.621Z,15.10
2018-07-21T05:04:55.334Z,13.50
2018-07-21T05:05:55.473Z,18.10
2018-07-21T05:06:55.670Z,14.00
2018-07-21T05:08:08.974Z,19.30
2018-07-21T05:08:55.358Z,13.90
2018-07-21T05:09:55.174Z,13.00
2018-07-21T05:11:15.471Z,12.60
2018-07-21T05:12:16.650Z,12.00
2018-07-21T05:13:15.556Z,11.00
2018-07-21T05:14:16.412Z,12.60
2018-07-21T05:14:57.688Z,11.60
2018-07-21T05:15:59.310Z,12.90
2018-07-21T05:16:58.298Z,12.70
2018-07-21T05:17:58.297Z,11.00
2018-07-21T05:18:58.543Z,10.50
2018-07-21T05:19:58.719Z,12.90
2018-07-21T05:20:57.962Z,11.80
2018-07-21T05:21:58.227Z,11.30
2018-07-21T05:22:58.436Z,12.30
2018-07-21T05:23:58.450Z,11.70
2018-07-21T05:24:58.412Z,10.80
2018-07-21T05:25:58.285Z,14.60
2018-07-21T05:26:58.242Z,12.60
2018-07-21T05:27:58.511Z,11.70
2018-07-21T05:28:58.210Z,10.40
2018-07-21T05:29:58.149Z,11.60
2018-07-21T05:30:58.237Z,15.20
2018-07-21T05:32:39.851Z,12.80
2018-07-21T05:33:41.064Z,11.60
2018-07-21T05:34:39.897Z,12.00
2018-07-21T05:35:41.051Z,13.40
2018-07-21T05:36:39.904Z,13.20
2018-07-21T05:38:23.058Z,18.20
2018-07-21T05:39:24.082Z,12.80
2018-07-21T05:40:45.220Z,11.30
2018-07-21T05:41:45.387Z,15.30
2018-07-21T05:42:46.361Z,12.00
2018-07-21T05:43:45.210Z,12.30
2018-07-21T05:44:45.422Z,15.20
2018-07-21T05:46:27.066Z,13.20
2018-07-21T05:47:26.773Z,12.90
2018-07-21T05:48:48.202Z,11.50
2018-07-21T05:49:49.142Z,21.80
2018-07-21T05:50:49.317Z,12.70
2018-07-21T05:51:49.030Z,12.60
2018-07-21T05:52:48.799Z,11.50
2018-07-21T05:53:48.459Z,12.60
2018-07-21T05:54:49.496Z,12.30
2018-07-21T05:55:51.684Z,17.10
2018-07-21T05:56:48.754Z,15.50
2018-07-21T05:57:48.706Z,12.90
2018-07-21T05:58:48.592Z,23.30
2018-07-21T06:00:29.917Z,11.90
2018-07-21T06:01:30.880Z,10.80
2018-07-21T06:02:52.025Z,11.40
2018-07-21T06:03:52.053Z,10.20
2018-07-21T06:04:52.373Z,13.20
2018-07-21T06:05:52.521Z,11.40
2018-07-21T06:07:12.895Z,10.40
2018-07-21T06:08:35.061Z,12.30
2018-07-21T06:09:56.089Z,12.40
2018-07-21T06:10:56.081Z,12.20
2018-07-21T06:11:56.809Z,9.80
2018-07-21T06:12:57.642Z,12.20
2018-07-21T06:13:56.611Z,10.50
2018-07-21T06:14:56.904Z,11.40
2018-07-21T06:15:55.834Z,11.60
2018-07-21T06:16:58.093Z,10.90
2018-07-21T06:18:16.763Z,10.10
2018-07-21T06:19:16.624Z,17.00
2018-07-21T06:20:28.433Z,15.50
2018-07-21T06:21:17.303Z,12.50
2018-07-21T06:22:20.402Z,11.00
2018-07-21T06:23:18.411Z,9.60
2018-07-21T06:24:19.410Z,13.90
2018-07-21T06:25:40.105Z,11.60
2018-07-21T06:26:39.110Z,13.30
2018-07-21T06:28:43.329Z,10.50
2018-07-21T06:29:43.270Z,12.90
2018-07-21T06:30:43.187Z,14.30
2018-07-21T06:31:43.520Z,12.20
2018-07-21T06:32:43.798Z,15.70
2018-07-21T06:33:43.955Z,13.20
2018-07-21T06:34:45.131Z,11.30
2018-07-21T06:35:44.201Z,11.60
2018-07-21T06:36:43.377Z,10.90
2018-07-21T06:37:43.210Z,8.70
2018-07-21T06:38:42.995Z,9.90
2018-07-21T06:39:45.756Z,11.70
2018-07-21T06:40:45.447Z,10.80
2018-07-21T06:41:43.139Z,10.40
2018-07-21T06:42:44.900Z,11.00
2018-07-21T06:43:44.055Z,11.00
2018-07-21T06:44:43.070Z,10.50
2018-07-21T06:45:44.173Z,10.30
2018-07-21T06:46:43.405Z,11.60
2018-07-21T06:47:43.469Z,10.90
2018-07-21T06:48:43.454Z,10.80
2018-07-21T06:49:45.936Z,10.50
2018-07-21T06:50:43.798Z,15.50
2018-07-21T06:51:43.533Z,11.20
2018-07-21T06:52:43.898Z,11.10
2018-07-21T06:53:44.491Z,9.70
2018-07-21T06:54:43.910Z,14.60
2018-07-21T06:55:44.277Z,10.30
2018-07-21T06:56:43.367Z,9.40
2018-07-21T06:58:04.500Z,9.90
2018-07-21T06:59:05.276Z,12.10
2018-07-21T07:00:05.561Z,11.40
2018-07-21T07:01:04.922Z,11.00
2018-07-21T07:02:04.733Z,12.60
2018-07-21T07:03:05.032Z,10.90
2018-07-21T07:04:05.026Z,15.90
2018-07-21T07:05:04.839Z,9.60
2018-07-21T07:06:05.138Z,9.40
2018-07-21T07:07:26.547Z,9.30
2018-07-21T07:08:26.699Z,9.20
2018-07-21T07:09:26.629Z,9.70
2018-07-21T07:10:26.832Z,8.40
2018-07-21T07:11:48.360Z,10.60
2018-07-21T07:12:48.890Z,11.00
2018-07-21T07:13:48.077Z,10.80
2018-07-21T07:14:48.474Z,9.30
2018-07-21T07:15:48.712Z,11.90
2018-07-21T07:16:47.783Z,9.80
2018-07-21T07:17:47.668Z,10.60
2018-07-21T07:18:48.839Z,11.10
2018-07-21T07:19:47.828Z,10.40
2018-07-21T07:20:48.059Z,8.60
2018-07-21T07:21:48.429Z,8.30
2018-07-21T07:23:09.428Z,7.90
2018-07-21T07:24:10.676Z,9.20
2018-07-21T07:25:09.648Z,8.30
2018-07-21T07:26:09.641Z,13.90
2018-07-21T07:27:31.162Z,10.30
2018-07-21T07:28:31.448Z,9.80
2018-07-21T07:29:52.475Z,8.30
2018-07-21T07:31:16.580Z,9.00
2018-07-21T07:32:16.007Z,10.20
2018-07-21T07:33:15.912Z,9.00
2018-07-21T07:34:15.860Z,8.60
2018-07-21T07:35:15.880Z,8.20
2018-07-21T07:36:15.742Z,8.80
2018-07-21T07:37:16.731Z,9.40
2018-07-21T07:38:15.990Z,11.10
2018-07-21T07:39:15.872Z,10.20
2018-07-21T07:40:15.732Z,8.10
2018-07-21T07:41:16.030Z,7.30
2018-07-21T07:42:16.415Z,16.30
2018-07-21T07:43:16.354Z,7.50
2018-07-21T07:44:16.366Z,10.40
2018-07-21T07:45:16.182Z,11.50
2018-07-21T07:46:16.681Z,12.10
2018-07-21T07:47:16.088Z,9.90
2018-07-21T07:48:16.574Z,12.80
2018-07-21T07:49:16.936Z,12.00
2018-07-21T07:50:15.804Z,8.70
2018-07-21T07:51:16.694Z,7.80
2018-07-21T07:52:15.946Z,10.20
2018-07-21T07:53:15.822Z,11.40
2018-07-21T07:54:16.599Z,9.90
2018-07-21T07:55:15.634Z,9.20
2018-07-21T07:56:15.687Z,9.80
2018-07-21T07:57:16.969Z,9.40
2018-07-21T07:58:16.796Z,15.50
2018-07-21T07:59:16.115Z,13.40
2018-07-21T08:00:16.591Z,11.40
2018-07-21T08:01:15.995Z,13.30
2018-07-21T08:02:16.210Z,10.30
2018-07-21T08:03:17.058Z,15.50
2018-07-21T08:04:16.379Z,13.10
2018-07-21T08:05:16.581Z,9.00
2018-07-21T08:06:15.696Z,9.30
2018-07-21T08:07:37.351Z,12.40
2018-07-21T08:08:38.352Z,15.00
2018-07-21T08:09:38.626Z,12.30
2018-07-21T08:10:37.858Z,7.50
2018-07-21T08:11:37.695Z,8.60
2018-07-21T08:12:37.625Z,11.40
2018-07-21T08:13:37.518Z,10.40
2018-07-21T08:15:19.289Z,11.20
2018-07-21T08:16:19.486Z,12.40
2018-07-21T08:17:40.486Z,8.00
2018-07-21T08:18:41.774Z,12.40
2018-07-21T08:19:40.906Z,11.50
2018-07-21T08:20:41.005Z,9.20
2018-07-21T08:21:41.418Z,12.20
2018-07-21T08:23:23.575Z,8.70
2018-07-21T08:24:23.816Z,9.20
2018-07-21T08:25:24.105Z,9.90
2018-07-21T08:26:25.057Z,12.30
2018-07-21T08:27:24.227Z,8.30
2018-07-21T08:28:23.687Z,9.20
2018-07-21T08:29:23.517Z,9.70
2018-07-21T08:30:23.867Z,10.60
2018-07-21T08:31:24.054Z,9.40
2018-07-21T08:32:45.403Z,11.00
2018-07-21T08:33:45.664Z,10.40
2018-07-21T08:34:45.501Z,7.90
2018-07-21T08:35:45.747Z,9.10
2018-07-21T08:36:45.828Z,8.00
2018-07-21T08:37:45.699Z,8.90
2018-07-21T08:38:45.432Z,11.80
2018-07-21T08:39:45.811Z,12.50
2018-07-21T08:40:46.063Z,9.50
2018-07-21T08:41:46.361Z,7.60
2018-07-21T08:43:06.828Z,10.20
2018-07-21T08:44:07.068Z,7.80
2018-07-21T08:45:07.340Z,8.60
2018-07-21T08:46:27.438Z,10.90
2018-07-21T08:47:28.746Z,9.70
2018-07-21T08:48:28.600Z,7.40
2018-07-21T08:49:28.828Z,9.70
2018-07-21T08:50:27.609Z,12.70
2018-07-21T08:51:27.981Z,9.20
2018-07-21T08:52:27.916Z,11.30
2018-07-21T08:53:28.034Z,7.60
2018-07-21T08:54:28.250Z,9.60
2018-07-21T08:55:28.547Z,10.00
2018-07-21T08:56:27.828Z,9.70
2018-07-21T08:57:27.593Z,7.70
2018-07-21T08:58:27.416Z,12.50
2018-07-21T08:59:28.788Z,10.00
2018-07-21T09:00:27.754Z,8.60
2018-07-21T09:01:28.853Z,9.60
2018-07-21T09:02:27.905Z,9.40
2018-07-21T09:03:28.240Z,9.60
2018-07-21T09:04:50.571Z,10.10
2018-07-21T09:05:50.904Z,8.00
2018-07-21T09:06:50.339Z,11.70
2018-07-21T09:07:51.081Z,9.60
2018-07-21T09:08:51.440Z,7.90
2018-07-21T09:10:11.036Z,8.40
2018-07-21T09:11:11.373Z,15.60
2018-07-21T09:12:11.311Z,11.10
2018-07-21T09:13:11.511Z,9.00
2018-07-21T09:14:11.440Z,8.90
2018-07-21T09:15:14.194Z,9.30
2018-07-21T09:16:31.834Z,9.50
2018-07-21T09:17:32.802Z,10.60
2018-07-21T09:18:33.906Z,9.40
2018-07-21T09:19:34.087Z,11.90
2018-07-21T09:20:32.907Z,10.30
2018-07-21T09:21:53.925Z,14.90
2018-07-21T09:22:55.135Z,11.30
2018-07-21T09:23:54.351Z,9.70
2018-07-21T09:24:54.709Z,12.80
2018-07-21T09:25:54.466Z,9.40
2018-07-21T09:26:54.338Z,12.70
2018-07-21T09:28:37.547Z,13.00
2018-07-21T09:29:37.415Z,10.00
2018-07-21T09:30:37.217Z,15.20
2018-07-21T09:31:38.588Z,10.80
2018-07-21T09:32:38.086Z,9.50
2018-07-21T09:33:39.022Z,10.50
2018-07-21T09:34:38.031Z,7.90
2018-07-21T09:35:38.072Z,10.40
2018-07-21T09:36:38.285Z,11.90
2018-07-21T09:37:57.850Z,12.40
2018-07-21T09:38:58.729Z,11.10
2018-07-21T09:39:58.743Z,8.20
2018-07-21T09:40:59.024Z,8.70
2018-07-21T09:41:57.869Z,10.40
2018-07-21T09:42:59.120Z,10.40
2018-07-21T09:43:58.163Z,10.50
2018-07-21T09:44:58.268Z,9.60
2018-07-21T09:46:02.938Z,7.90
2018-07-21T09:46:59.178Z,15.30
2018-07-21T09:47:58.130Z,11.10
2018-07-21T09:48:58.180Z,9.60
2018-07-21T09:49:58.355Z,10.30
2018-07-21T09:51:30.916Z,9.90
2018-07-21T09:52:18.973Z,11.50
2018-07-21T09:53:16.460Z,8.50
2018-07-21T09:55:11.297Z,11.60
2018-07-21T09:57:15.804Z,8.80
2018-07-21T09:58:12.650Z,10.00
2018-07-21T09:59:04.674Z,9.40
2018-07-21T10:00:04.457Z,10.40
2018-07-21T10:00:59.449Z,12.10
2018-07-21T10:01:57.345Z,9.60
2018-07-21T10:02:56.990Z,11.10
2018-07-21T10:03:57.188Z,10.00
2018-07-21T10:04:56.147Z,9.20
2018-07-21T10:05:55.149Z,9.30
2018-07-21T10:06:56.418Z,10.00
2018-07-21T10:07:55.384Z,13.70
2018-07-21T10:08:55.214Z,13.80
2018-07-21T10:09:55.255Z,10.20
2018-07-21T10:10:55.523Z,14.10
2018-07-21T10:11:55.573Z,10.60
2018-07-21T10:13:16.824Z,8.40
2018-07-21T10:14:17.269Z,10.10
2018-07-21T10:15:38.811Z,10.00
2018-07-21T10:16:38.757Z,11.70
2018-07-21T10:17:59.964Z,10.20
2018-07-21T10:19:00.257Z,11.20
2018-07-21T10:20:01.354Z,8.70
2018-07-21T10:21:00.315Z,8.20
2018-07-21T10:22:00.935Z,12.10
2018-07-21T10:22:59.758Z,8.80
2018-07-21T10:24:00.164Z,11.90
2018-07-21T10:26:40.682Z,9.60
2018-07-21T10:27:41.648Z,10.10
2018-07-21T10:32:35.539Z,10.00
2018-07-21T10:33:36.982Z,11.00
2018-07-21T10:34:36.002Z,8.10
2018-07-21T10:35:35.740Z,11.80
2018-07-21T10:36:37.498Z,11.60
2018-07-21T10:37:36.125Z,9.30
2018-07-21T10:38:35.967Z,10.30
2018-07-21T10:39:59.309Z,10.80
2018-07-21T10:40:59.840Z,8.00
2018-07-21T10:41:59.550Z,13.00
2018-07-21T10:43:00.501Z,13.20
2018-07-21T10:44:00.514Z,9.10
2018-07-21T10:44:59.964Z,9.00
2018-07-21T10:46:00.814Z,12.50
2018-07-21T10:47:00.061Z,12.20
2018-07-21T10:48:23.667Z,9.30
2018-07-21T10:49:23.673Z,9.00
2018-07-21T10:50:23.964Z,10.40
2018-07-21T10:51:23.614Z,9.30
2018-07-21T10:52:23.359Z,12.00
2018-07-21T10:53:24.586Z,11.20
2018-07-21T10:54:23.834Z,9.90
2018-07-21T10:55:23.874Z,10.20
2018-07-21T10:57:11.161Z,10.00
2018-07-21T10:58:11.808Z,13.20
2018-07-21T10:59:11.505Z,11.60
2018-07-21T11:00:36.012Z,11.30
2018-07-21T11:01:57.764Z,10.60
2018-07-21T11:02:57.630Z,11.00
2018-07-21T11:03:58.947Z,14.50
2018-07-21T11:04:59.327Z,10.00
2018-07-21T11:06:26.390Z,10.90
2018-07-21T11:07:26.228Z,10.20
2018-07-21T11:08:25.727Z,11.80
2018-07-21T11:09:26.376Z,13.60
2018-07-21T11:10:27.395Z,10.10
2018-07-21T11:11:26.327Z,12.90
2018-07-21T11:12:27.672Z,13.30
2018-07-21T11:13:50.124Z,8.30
2018-07-21T11:14:50.779Z,10.90
2018-07-21T11:15:50.436Z,13.70
2018-07-21T11:16:50.636Z,9.90
2018-07-21T11:17:51.619Z,9.40
2018-07-21T11:18:50.871Z,10.90
2018-07-21T11:20:35.887Z,12.70
2018-07-21T11:21:35.666Z,10.40
2018-07-21T11:22:36.624Z,12.90
2018-07-21T11:23:36.638Z,11.90
2018-07-21T11:24:36.179Z,8.40
2018-07-21T11:25:36.159Z,10.60
2018-07-21T11:26:36.531Z,10.20
2018-07-21T11:27:36.754Z,9.70
2018-07-21T11:28:36.136Z,8.50
2018-07-21T11:29:35.903Z,10.00
2018-07-21T11:30:36.480Z,11.40
2018-07-21T11:31:36.235Z,9.60
2018-07-21T11:32:36.817Z,11.50
2018-07-21T11:33:35.692Z,12.20
2018-07-21T11:34:41.359Z,10.20
2018-07-21T11:35:38.055Z,9.10
2018-07-21T11:36:36.801Z,9.00
2018-07-21T11:37:37.391Z,8.60
2018-07-21T11:38:36.672Z,10.90
2018-07-21T11:39:36.759Z,10.20
2018-07-21T11:40:38.373Z,9.50
2018-07-21T11:41:42.597Z,11.90
2018-07-21T11:42:36.035Z,13.10
2018-07-21T11:43:35.965Z,10.30
2018-07-21T11:44:37.165Z,10.20
2018-07-21T11:46:02.393Z,10.90
2018-07-21T11:47:00.524Z,11.00
2018-07-21T11:48:00.522Z,10.00
2018-07-21T11:49:01.688Z,11.80
2018-07-21T11:50:03.154Z,10.90
2018-07-21T11:51:00.569Z,8.30
2018-07-21T11:52:00.052Z,10.00
2018-07-21T11:53:01.179Z,11.30
2018-07-21T11:54:01.079Z,11.70
2018-07-21T11:55:00.112Z,11.90
2018-07-21T11:56:00.125Z,10.20
2018-07-21T11:57:00.305Z,8.40
2018-07-21T11:58:00.962Z,11.90
2018-07-21T11:59:01.167Z,13.90
2018-07-21T12:00:44.752Z,11.10
2018-07-21T12:01:45.213Z,10.20
2018-07-21T12:03:28.886Z,8.90
2018-07-21T12:04:28.745Z,12.80
2018-07-21T12:05:28.620Z,8.50
2018-07-21T12:06:30.115Z,13.50
2018-07-21T12:07:29.566Z,9.60
2018-07-21T12:08:31.117Z,10.40
2018-07-21T12:09:30.643Z,12.40
2018-07-21T12:10:31.323Z,14.60
2018-07-21T13:31:14.779Z,7.10
2018-07-21T13:32:39.967Z,11.50
2018-07-21T13:33:39.415Z,7.80
2018-07-21T13:34:38.896Z,8.00
2018-07-21T13:35:39.333Z,7.10
2018-07-21T13:36:38.745Z,8.90
2018-07-21T13:37:39.021Z,6.90
2018-07-21T13:38:39.345Z,8.60
2018-07-21T13:39:39.564Z,7.00
2018-07-21T13:40:39.041Z,9.20
2018-07-21T13:41:39.607Z,7.90
2018-07-21T13:42:38.942Z,9.60
2018-07-21T13:43:40.223Z,8.60
2018-07-21T13:44:38.694Z,8.10
2018-07-21T13:45:39.216Z,6.90
2018-07-21T13:46:39.383Z,9.20
2018-07-21T13:47:38.862Z,7.80
2018-07-21T13:48:39.327Z,6.40
2018-07-21T13:50:04.109Z,6.20
2018-07-21T13:51:03.564Z,7.70
2018-07-21T13:52:03.037Z,6.30
2018-07-21T13:53:04.722Z,8.20
2018-07-21T13:54:03.253Z,7.30
2018-07-21T13:55:26.881Z,6.80
2018-07-21T13:56:27.969Z,11.20
2018-07-21T13:57:27.445Z,11.40
2018-07-21T13:58:27.580Z,7.20
2018-07-21T13:59:26.929Z,8.60
2018-07-21T14:00:50.464Z,7.50
2018-07-21T14:01:50.982Z,8.20
2018-07-21T14:02:49.376Z,9.70
2018-07-21T14:03:52.013Z,7.90
2018-07-21T14:05:13.487Z,6.90
2018-07-21T14:06:14.055Z,11.20
2018-07-21T14:07:14.579Z,8.40
2018-07-21T14:08:14.065Z,8.40
2018-07-21T14:09:14.453Z,7.10
2018-07-21T14:10:11.842Z,9.90
2018-07-21T14:11:14.211Z,9.50
2018-07-21T14:12:13.738Z,6.40
2018-07-21T14:13:14.464Z,9.40
2018-07-21T14:14:37.452Z,7.90
2018-07-21T14:15:38.017Z,8.20
2018-07-21T14:16:38.298Z,6.60
2018-07-21T14:17:37.740Z,6.60
2018-07-21T14:18:38.636Z,7.70
2018-07-21T14:19:38.064Z,6.60
2018-07-21T14:20:38.043Z,8.00
2018-07-21T14:21:37.566Z,7.30
2018-07-21T14:22:38.570Z,9.90
2018-07-21T14:24:01.415Z,6.90
2018-07-21T14:25:01.863Z,10.30
2018-07-21T14:26:02.491Z,8.40
2018-07-21T14:27:01.747Z,6.70
2018-07-21T14:28:04.237Z,9.60
2018-07-21T14:29:00.667Z,7.80
2018-07-21T14:30:01.707Z,9.30
2018-07-21T14:31:02.931Z,8.90
2018-07-21T14:32:02.534Z,7.90
2018-07-21T14:33:03.183Z,8.80
2018-07-21T14:34:01.704Z,9.60
2018-07-21T14:35:25.272Z,12.80
2018-07-21T14:36:50.628Z,7.80
2018-07-21T14:37:51.064Z,11.70
2018-07-21T14:38:50.619Z,7.30
2018-07-21T14:39:51.078Z,8.20
2018-07-21T14:40:50.442Z,9.70
2018-07-21T14:41:51.914Z,8.50
2018-07-21T14:42:50.392Z,6.60
2018-07-21T14:43:51.013Z,10.50
2018-07-21T14:44:50.397Z,9.80
2018-07-21T14:45:50.968Z,6.90
2018-07-21T14:46:50.235Z,9.30
2018-07-21T14:47:50.792Z,10.90
2018-07-21T14:48:51.055Z,8.40
2018-07-21T14:49:50.583Z,8.40
2018-07-21T14:50:51.041Z,10.80
2018-07-21T14:51:50.306Z,11.10
2018-07-21T14:52:50.630Z,7.60
2018-07-21T14:53:50.887Z,11.90
2018-07-21T14:54:50.468Z,11.10
2018-07-21T14:55:50.978Z,10.30
2018-07-21T14:56:50.909Z,9.20
2018-07-21T14:57:50.430Z,10.60
2018-07-21T14:58:51.000Z,7.00
2018-07-21T14:59:50.451Z,8.80
2018-07-21T15:01:14.270Z,9.00
2018-07-21T15:02:13.340Z,10.10
2018-07-21T15:03:13.557Z,7.20
2018-07-21T15:04:15.068Z,6.30
2018-07-21T15:05:14.548Z,10.80
2018-07-21T15:06:15.115Z,7.00
2018-07-21T15:07:14.674Z,6.60
2018-07-21T15:08:15.196Z,8.80
2018-07-21T15:09:37.770Z,5.90
2018-07-21T15:10:38.321Z,8.20
2018-07-21T15:11:38.779Z,8.10
2018-07-21T15:12:38.390Z,9.70